sensor_id;sensor_type;location;lat;lon;timestamp;P1;durP1;ratioP1;P2;durP2;ratioP2
26963;SDS011;14521;48.148;-1.656;2022-12-18T00:01:15;3.38;;;3.15;;
26963;SDS011;14521;48.148;-1.656;2022-12-18T00:04:45;3.30;;;3.10;;
26963;SDS011;14521;48.148;-1.656;2022-12-18T00:08:07;4.18;;;3.83;;
26963;SDS011;14521;48.148;-1.656;2022-12-18T00:11:30;3.92;;;3.63;;
26963;SDS011;14521;48.148;-1.656;2022-12-18T00:14:53;3.90;;;3.60;;
26963;SDS011;14521;48.148;-1.656;2022-12-18T00:18:15;4.05;;;3.70;;
26963;SDS011;14521;48.148;-1.656;2022-12-18T00:21:42;4.43;;;4.00;;
26963;SDS011;14521;48.148;-1.656;2022-12-18T00:25:05;3.67;;;3.33;;
26963;SDS011;14521;48.148;-1.656;2022-12-18T00:28:27;3.67;;;3.38;;
26963;SDS011;14521;48.148;-1.656;2022-12-18T00:31:50;3.55;;;3.28;;
26963;SDS011;14521;48.148;-1.656;2022-12-18T00:35:12;4.65;;;3.22;;
26963;SDS011;14521;48.148;-1.656;2022-12-18T00:38:35;3.97;;;3.58;;
26963;SDS011;14521;48.148;-1.656;2022-12-18T00:41:58;3.53;;;3.28;;
26963;SDS011;14521;48.148;-1.656;2022-12-18T00:45:39;3.90;;;3.60;;
26963;SDS011;14521;48.148;-1.656;2022-12-18T00:49:01;2.88;;;2.67;;
26963;SDS011;14521;48.148;-1.656;2022-12-18T00:52:24;4.60;;;3.25;;
26963;SDS011;14521;48.148;-1.656;2022-12-18T00:55:47;4.63;;;3.50;;
26963;SDS011;14521;48.148;-1.656;2022-12-18T00:59:10;3.50;;;3.22;;
26963;SDS011;14521;48.148;-1.656;2022-12-18T01:02:33;3.85;;;3.55;;
26963;SDS011;14521;48.148;-1.656;2022-12-18T01:05:56;3.63;;;3.33;;
26963;SDS011;14521;48.148;-1.656;2022-12-18T01:09:18;3.92;;;3.63;;
26963;SDS011;14521;48.148;-1.656;2022-12-18T01:12:41;3.60;;;3.40;;
26963;SDS011;14521;48.148;-1.656;2022-12-18T01:16:04;3.53;;;3.22;;
26963;SDS011;14521;48.148;-1.656;2022-12-18T01:19:29;4.00;;;3.60;;
26963;SDS011;14521;48.148;-1.656;2022-12-18T01:22:51;3.53;;;3.25;;
26963;SDS011;14521;48.148;-1.656;2022-12-18T01:26:14;3.75;;;3.45;;
26963;SDS011;14521;48.148;-1.656;2022-12-18T01:29:37;3.40;;;3.20;;
26963;SDS011;14521;48.148;-1.656;2022-12-18T01:33:00;3.90;;;3.50;;
26963;SDS011;14521;48.148;-1.656;2022-12-18T01:36:29;3.15;;;2.95;;
26963;SDS011;14521;48.148;-1.656;2022-12-18T01:39:53;3.17;;;2.97;;
26963;SDS011;14521;48.148;-1.656;2022-12-18T01:43:16;3.55;;;3.25;;
26963;SDS011;14521;48.148;-1.656;2022-12-18T01:46:40;3.70;;;3.50;;
26963;SDS011;14521;48.148;-1.656;2022-12-18T01:50:08;3.83;;;3.53;;
26963;SDS011;14521;48.148;-1.656;2022-12-18T01:53:34;3.22;;;3.03;;
26963;SDS011;14521;48.148;-1.656;2022-12-18T01:56:59;3.72;;;3.53;;
26963;SDS011;14521;48.148;-1.656;2022-12-18T02:00:23;3.42;;;3.22;;
26963;SDS011;14521;48.148;-1.656;2022-12-18T02:03:46;3.03;;;2.83;;
26963;SDS011;14521;48.148;-1.656;2022-12-18T02:11:00;3.60;;;3.30;;
26963;SDS011;14521;48.148;-1.656;2022-12-18T02:18:10;3.78;;;3.47;;
26963;SDS011;14521;48.148;-1.656;2022-12-18T02:29:04;3.75;;;3.47;;
26963;SDS011;14521;48.148;-1.656;2022-12-18T02:32:31;3.95;;;3.65;;
26963;SDS011;14521;48.148;-1.656;2022-12-18T02:35:58;3.58;;;3.28;;
26963;SDS011;14521;48.148;-1.656;2022-12-18T02:39:25;3.50;;;3.20;;
26963;SDS011;14521;48.148;-1.656;2022-12-18T02:42:52;4.15;;;3.75;;
26963;SDS011;14521;48.148;-1.656;2022-12-18T02:57:15;4.07;;;3.70;;
26963;SDS011;14521;48.148;-1.656;2022-12-18T03:01:09;3.67;;;3.47;;
26963;SDS011;14521;48.148;-1.656;2022-12-18T03:05:47;3.47;;;3.25;;
26963;SDS011;14521;48.148;-1.656;2022-12-18T03:08:41;3.97;;;3.42;;
26963;SDS011;14521;48.148;-1.656;2022-12-18T03:12:12;3.75;;;3.45;;
26963;SDS011;14521;48.148;-1.656;2022-12-18T03:15:49;3.40;;;3.10;;
26963;SDS011;14521;48.148;-1.656;2022-12-18T03:19:16;3.20;;;3.00;;
26963;SDS011;14521;48.148;-1.656;2022-12-18T03:22:43;3.83;;;3.35;;
26963;SDS011;14521;48.148;-1.656;2022-12-18T03:26:11;3.30;;;3.10;;
26963;SDS011;14521;48.148;-1.656;2022-12-18T03:29:45;3.80;;;3.50;;
26963;SDS011;14521;48.148;-1.656;2022-12-18T03:33:25;3.28;;;3.08;;
26963;SDS011;14521;48.148;-1.656;2022-12-18T03:36:51;3.20;;;3.00;;
26963;SDS011;14521;48.148;-1.656;2022-12-18T03:40:14;3.38;;;3.08;;
26963;SDS011;14521;48.148;-1.656;2022-12-18T03:43:59;3.50;;;3.30;;
26963;SDS011;14521;48.148;-1.656;2022-12-18T03:47:54;3.75;;;3.45;;
26963;SDS011;14521;48.148;-1.656;2022-12-18T03:51:28;3.70;;;3.28;;
26963;SDS011;14521;48.148;-1.656;2022-12-18T03:55:00;3.63;;;3.42;;
26963;SDS011;14521;48.148;-1.656;2022-12-18T03:58:25;3.95;;;3.55;;
26963;SDS011;14521;48.148;-1.656;2022-12-18T04:01:58;3.30;;;3.10;;
26963;SDS011;14521;48.148;-1.656;2022-12-18T04:05:24;3.50;;;3.30;;
26963;SDS011;14521;48.148;-1.656;2022-12-18T04:08:48;3.03;;;2.83;;
26963;SDS011;14521;48.148;-1.656;2022-12-18T04:12:15;2.70;;;2.50;;
26963;SDS011;14521;48.148;-1.656;2022-12-18T04:15:40;3.75;;;3.47;;
26963;SDS011;14521;48.148;-1.656;2022-12-18T04:19:07;3.45;;;3.25;;
26963;SDS011;14521;48.148;-1.656;2022-12-18T04:22:33;2.90;;;2.70;;
26963;SDS011;14521;48.148;-1.656;2022-12-18T04:25:57;3.47;;;3.17;;
26963;SDS011;14521;48.148;-1.656;2022-12-18T04:29:37;3.70;;;3.40;;
26963;SDS011;14521;48.148;-1.656;2022-12-18T04:32:59;3.30;;;3.10;;
26963;SDS011;14521;48.148;-1.656;2022-12-18T04:36:24;3.47;;;3.28;;
26963;SDS011;14521;48.148;-1.656;2022-12-18T04:39:47;4.35;;;3.95;;
26963;SDS011;14521;48.148;-1.656;2022-12-18T04:43:17;3.80;;;3.50;;
26963;SDS011;14521;48.148;-1.656;2022-12-18T04:46:40;3.47;;;3.28;;
26963;SDS011;14521;48.148;-1.656;2022-12-18T04:50:02;3.65;;;3.35;;
26963;SDS011;14521;48.148;-1.656;2022-12-18T04:53:25;3.08;;;2.88;;
26963;SDS011;14521;48.148;-1.656;2022-12-18T04:56:47;3.42;;;3.13;;
26963;SDS011;14521;48.148;-1.656;2022-12-18T05:00:10;3.40;;;3.20;;
26963;SDS011;14521;48.148;-1.656;2022-12-18T05:03:33;3.28;;;2.85;;
26963;SDS011;14521;48.148;-1.656;2022-12-18T05:06:56;3.00;;;2.80;;
26963;SDS011;14521;48.148;-1.656;2022-12-18T05:10:18;2.90;;;2.70;;
26963;SDS011;14521;48.148;-1.656;2022-12-18T05:13:41;3.72;;;3.10;;
26963;SDS011;14521;48.148;-1.656;2022-12-18T05:17:04;3.00;;;2.80;;
26963;SDS011;14521;48.148;-1.656;2022-12-18T05:20:27;2.50;;;2.30;;
26963;SDS011;14521;48.148;-1.656;2022-12-18T05:23:50;2.88;;;2.60;;
26963;SDS011;14521;48.148;-1.656;2022-12-18T05:27:12;2.28;;;2.08;;
26963;SDS011;14521;48.148;-1.656;2022-12-18T05:30:34;2.90;;;2.70;;
26963;SDS011;14521;48.148;-1.656;2022-12-18T05:33:57;2.55;;;2.40;;
26963;SDS011;14521;48.148;-1.656;2022-12-18T05:37:19;2.28;;;2.17;;
26963;SDS011;14521;48.148;-1.656;2022-12-18T05:40:42;2.35;;;2.25;;
26963;SDS011;14521;48.148;-1.656;2022-12-18T05:44:05;2.53;;;2.35;;
26963;SDS011;14521;48.148;-1.656;2022-12-18T05:47:27;2.50;;;2.35;;
26963;SDS011;14521;48.148;-1.656;2022-12-18T05:50:50;2.67;;;2.47;;
26963;SDS011;14521;48.148;-1.656;2022-12-18T05:54:13;2.50;;;2.30;;
26963;SDS011;14521;48.148;-1.656;2022-12-18T05:57:35;2.22;;;2.13;;
26963;SDS011;14521;48.148;-1.656;2022-12-18T06:00:58;2.50;;;2.30;;
26963;SDS011;14521;48.148;-1.656;2022-12-18T06:04:28;2.35;;;2.25;;
26963;SDS011;14521;48.148;-1.656;2022-12-18T06:07:52;1.95;;;1.85;;
26963;SDS011;14521;48.148;-1.656;2022-12-18T06:11:22;2.75;;;2.55;;
26963;SDS011;14521;48.148;-1.656;2022-12-18T06:14:46;2.45;;;2.35;;
26963;SDS011;14521;48.148;-1.656;2022-12-18T06:18:08;2.47;;;2.38;;
26963;SDS011;14521;48.148;-1.656;2022-12-18T06:21:31;2.28;;;2.08;;
26963;SDS011;14521;48.148;-1.656;2022-12-18T06:24:54;2.70;;;2.50;;
26963;SDS011;14521;48.148;-1.656;2022-12-18T06:28:16;2.65;;;2.45;;
26963;SDS011;14521;48.148;-1.656;2022-12-18T06:31:38;2.67;;;2.47;;
26963;SDS011;14521;48.148;-1.656;2022-12-18T06:35:01;2.17;;;2.08;;
26963;SDS011;14521;48.148;-1.656;2022-12-18T06:38:23;2.03;;;1.92;;
26963;SDS011;14521;48.148;-1.656;2022-12-18T06:41:46;2.65;;;2.45;;
26963;SDS011;14521;48.148;-1.656;2022-12-18T06:45:08;3.00;;;2.35;;
26963;SDS011;14521;48.148;-1.656;2022-12-18T06:48:31;2.85;;;2.65;;
26963;SDS011;14521;48.148;-1.656;2022-12-18T06:51:54;2.55;;;2.20;;
26963;SDS011;14521;48.148;-1.656;2022-12-18T06:55:16;2.40;;;2.20;;
26963;SDS011;14521;48.148;-1.656;2022-12-18T06:58:38;2.72;;;2.53;;
26963;SDS011;14521;48.148;-1.656;2022-12-18T07:02:01;2.83;;;2.63;;
26963;SDS011;14521;48.148;-1.656;2022-12-18T07:05:23;13.02;;;3.30;;
26963;SDS011;14521;48.148;-1.656;2022-12-18T07:08:46;2.80;;;2.60;;
26963;SDS011;14521;48.148;-1.656;2022-12-18T07:12:09;2.90;;;2.70;;
26963;SDS011;14521;48.148;-1.656;2022-12-18T07:15:31;3.25;;;2.22;;
26963;SDS011;14521;48.148;-1.656;2022-12-18T07:18:54;2.80;;;2.60;;
26963;SDS011;14521;48.148;-1.656;2022-12-18T07:22:17;2.90;;;2.53;;
26963;SDS011;14521;48.148;-1.656;2022-12-18T07:25:40;2.45;;;2.35;;
26963;SDS011;14521;48.148;-1.656;2022-12-18T07:29:02;2.85;;;2.65;;
26963;SDS011;14521;48.148;-1.656;2022-12-18T07:32:25;7.57;;;2.30;;
26963;SDS011;14521;48.148;-1.656;2022-12-18T07:35:47;9.40;;;2.70;;
26963;SDS011;14521;48.148;-1.656;2022-12-18T07:39:10;2.53;;;2.33;;
26963;SDS011;14521;48.148;-1.656;2022-12-18T07:42:33;2.80;;;2.60;;
26963;SDS011;14521;48.148;-1.656;2022-12-18T07:45:56;2.90;;;2.70;;
26963;SDS011;14521;48.148;-1.656;2022-12-18T07:49:18;2.20;;;2.10;;
26963;SDS011;14521;48.148;-1.656;2022-12-18T07:52:41;2.42;;;2.33;;
26963;SDS011;14521;48.148;-1.656;2022-12-18T07:56:04;2.80;;;2.58;;
26963;SDS011;14521;48.148;-1.656;2022-12-18T07:59:49;2.72;;;2.60;;
26963;SDS011;14521;48.148;-1.656;2022-12-18T08:03:11;2.45;;;2.25;;
26963;SDS011;14521;48.148;-1.656;2022-12-18T08:06:34;3.20;;;2.53;;
26963;SDS011;14521;48.148;-1.656;2022-12-18T08:09:56;2.28;;;2.17;;
26963;SDS011;14521;48.148;-1.656;2022-12-18T08:13:19;2.85;;;2.65;;
26963;SDS011;14521;48.148;-1.656;2022-12-18T08:16:41;2.80;;;2.42;;
26963;SDS011;14521;48.148;-1.656;2022-12-18T08:20:04;6.47;;;5.82;;
26963;SDS011;14521;48.148;-1.656;2022-12-18T08:23:27;4.35;;;3.95;;
26963;SDS011;14521;48.148;-1.656;2022-12-18T08:26:49;3.30;;;2.97;;
26963;SDS011;14521;48.148;-1.656;2022-12-18T08:30:32;2.95;;;2.75;;
26963;SDS011;14521;48.148;-1.656;2022-12-18T08:33:55;3.03;;;2.83;;
26963;SDS011;14521;48.148;-1.656;2022-12-18T08:37:18;3.40;;;3.05;;
26963;SDS011;14521;48.148;-1.656;2022-12-18T08:40:40;3.80;;;3.00;;
26963;SDS011;14521;48.148;-1.656;2022-12-18T08:44:02;3.28;;;3.05;;
26963;SDS011;14521;48.148;-1.656;2022-12-18T08:47:43;4.82;;;2.80;;
26963;SDS011;14521;48.148;-1.656;2022-12-18T08:51:07;3.10;;;2.55;;
26963;SDS011;14521;48.148;-1.656;2022-12-18T08:54:31;3.50;;;2.80;;
26963;SDS011;14521;48.148;-1.656;2022-12-18T08:57:53;5.03;;;2.78;;
26963;SDS011;14521;48.148;-1.656;2022-12-18T09:01:15;11.82;;;3.10;;
26963;SDS011;14521;48.148;-1.656;2022-12-18T09:04:38;6.50;;;2.38;;
26963;SDS011;14521;48.148;-1.656;2022-12-18T09:08:01;3.35;;;3.05;;
26963;SDS011;14521;48.148;-1.656;2022-12-18T09:11:24;6.13;;;3.38;;
26963;SDS011;14521;48.148;-1.656;2022-12-18T09:14:48;4.40;;;3.10;;
26963;SDS011;14521;48.148;-1.656;2022-12-18T09:18:11;6.45;;;2.58;;
26963;SDS011;14521;48.148;-1.656;2022-12-18T09:21:34;4.75;;;3.10;;
26963;SDS011;14521;48.148;-1.656;2022-12-18T09:24:58;4.38;;;2.67;;
26963;SDS011;14521;48.148;-1.656;2022-12-18T09:28:20;3.05;;;2.85;;
26963;SDS011;14521;48.148;-1.656;2022-12-18T09:31:43;4.55;;;2.63;;
26963;SDS011;14521;48.148;-1.656;2022-12-18T09:35:05;4.05;;;2.65;;
26963;SDS011;14521;48.148;-1.656;2022-12-18T09:38:27;3.08;;;2.58;;
26963;SDS011;14521;48.148;-1.656;2022-12-18T09:41:51;3.13;;;2.83;;
26963;SDS011;14521;48.148;-1.656;2022-12-18T09:48:40;2.97;;;2.78;;
26963;SDS011;14521;48.148;-1.656;2022-12-18T09:52:26;2.60;;;2.40;;
26963;SDS011;14521;48.148;-1.656;2022-12-18T09:55:59;2.92;;;2.65;;
26963;SDS011;14521;48.148;-1.656;2022-12-18T09:59:29;4.47;;;3.00;;
26963;SDS011;14521;48.148;-1.656;2022-12-18T10:03:08;2.97;;;2.72;;
26963;SDS011;14521;48.148;-1.656;2022-12-18T10:06:38;2.95;;;2.75;;
26963;SDS011;14521;48.148;-1.656;2022-12-18T10:10:19;3.33;;;3.13;;
26963;SDS011;14521;48.148;-1.656;2022-12-18T10:13:53;4.97;;;3.20;;
26963;SDS011;14521;48.148;-1.656;2022-12-18T10:17:44;4.82;;;3.28;;
26963;SDS011;14521;48.148;-1.656;2022-12-18T10:21:15;3.90;;;3.35;;
26963;SDS011;14521;48.148;-1.656;2022-12-18T10:28:23;3.42;;;3.13;;
26963;SDS011;14521;48.148;-1.656;2022-12-18T10:31:46;7.13;;;2.95;;
26963;SDS011;14521;48.148;-1.656;2022-12-18T10:35:14;3.40;;;3.13;;
26963;SDS011;14521;48.148;-1.656;2022-12-18T10:38:47;9.82;;;3.63;;
26963;SDS011;14521;48.148;-1.656;2022-12-18T10:42:10;3.92;;;3.25;;
26963;SDS011;14521;48.148;-1.656;2022-12-18T10:45:40;20.02;;;3.97;;
26963;SDS011;14521;48.148;-1.656;2022-12-18T10:49:04;3.38;;;2.92;;
26963;SDS011;14521;48.148;-1.656;2022-12-18T10:52:28;5.95;;;3.80;;
26963;SDS011;14521;48.148;-1.656;2022-12-18T10:55:51;5.85;;;4.00;;
26963;SDS011;14521;48.148;-1.656;2022-12-18T10:59:16;6.72;;;4.00;;
26963;SDS011;14521;48.148;-1.656;2022-12-18T11:02:39;4.30;;;3.90;;
26963;SDS011;14521;48.148;-1.656;2022-12-18T11:06:03;4.75;;;4.32;;
26963;SDS011;14521;48.148;-1.656;2022-12-18T11:09:34;8.70;;;4.20;;
26963;SDS011;14521;48.148;-1.656;2022-12-18T11:16:46;4.57;;;3.88;;
26963;SDS011;14521;48.148;-1.656;2022-12-18T11:20:34;4.75;;;3.90;;
26963;SDS011;14521;48.148;-1.656;2022-12-18T11:23:58;7.50;;;4.15;;
26963;SDS011;14521;48.148;-1.656;2022-12-18T11:27:20;4.70;;;3.72;;
26963;SDS011;14521;48.148;-1.656;2022-12-18T11:30:43;4.65;;;4.25;;
26963;SDS011;14521;48.148;-1.656;2022-12-18T11:34:16;5.97;;;3.58;;
26963;SDS011;14521;48.148;-1.656;2022-12-18T11:41:27;6.10;;;4.07;;
26963;SDS011;14521;48.148;-1.656;2022-12-18T11:45:41;4.05;;;3.75;;
26963;SDS011;14521;48.148;-1.656;2022-12-18T11:49:12;5.05;;;3.42;;
26963;SDS011;14521;48.148;-1.656;2022-12-18T11:52:41;3.58;;;3.28;;
26963;SDS011;14521;48.148;-1.656;2022-12-18T11:59:35;12.90;;;11.52;;
26963;SDS011;14521;48.148;-1.656;2022-12-18T12:17:38;40.90;;;36.40;;
26963;SDS011;14521;48.148;-1.656;2022-12-18T12:39:35;86.25;;;74.30;;
26963;SDS011;14521;48.148;-1.656;2022-12-18T12:43:10;88.30;;;74.63;;
26963;SDS011;14521;48.148;-1.656;2022-12-18T12:46:36;80.75;;;67.00;;
26963;SDS011;14521;48.148;-1.656;2022-12-18T12:50:03;77.82;;;66.50;;
26963;SDS011;14521;48.148;-1.656;2022-12-18T12:53:29;73.57;;;60.38;;
26963;SDS011;14521;48.148;-1.656;2022-12-18T12:57:01;73.18;;;59.88;;
26963;SDS011;14521;48.148;-1.656;2022-12-18T13:00:36;52.90;;;46.58;;
26963;SDS011;14521;48.148;-1.656;2022-12-18T13:08:11;32.60;;;27.17;;
26963;SDS011;14521;48.148;-1.656;2022-12-18T13:11:45;47.28;;;41.33;;
26963;SDS011;14521;48.148;-1.656;2022-12-18T13:15:32;53.60;;;42.67;;
26963;SDS011;14521;48.148;-1.656;2022-12-18T13:19:03;45.28;;;39.78;;
26963;SDS011;14521;48.148;-1.656;2022-12-18T13:22:45;47.60;;;39.03;;
26963;SDS011;14521;48.148;-1.656;2022-12-18T13:29:46;41.13;;;34.70;;
26963;SDS011;14521;48.148;-1.656;2022-12-18T13:36:43;38.25;;;31.77;;
26963;SDS011;14521;48.148;-1.656;2022-12-18T13:40:55;31.95;;;28.20;;
26963;SDS011;14521;48.148;-1.656;2022-12-18T13:47:47;30.20;;;25.33;;
26963;SDS011;14521;48.148;-1.656;2022-12-18T13:51:10;29.65;;;26.27;;
26963;SDS011;14521;48.148;-1.656;2022-12-18T13:54:41;28.42;;;25.40;;
26963;SDS011;14521;48.148;-1.656;2022-12-18T13:58:06;28.05;;;24.98;;
26963;SDS011;14521;48.148;-1.656;2022-12-18T14:01:33;25.70;;;22.27;;
26963;SDS011;14521;48.148;-1.656;2022-12-18T14:04:55;25.67;;;22.83;;
26963;SDS011;14521;48.148;-1.656;2022-12-18T14:08:18;25.13;;;22.15;;
26963;SDS011;14521;48.148;-1.656;2022-12-18T14:11:45;24.27;;;21.40;;
26963;SDS011;14521;48.148;-1.656;2022-12-18T14:15:52;24.45;;;19.52;;
26963;SDS011;14521;48.148;-1.656;2022-12-18T14:19:02;22.60;;;19.20;;
26963;SDS011;14521;48.148;-1.656;2022-12-18T14:22:35;20.00;;;17.88;;
26963;SDS011;14521;48.148;-1.656;2022-12-18T14:25:58;21.10;;;17.75;;
26963;SDS011;14521;48.148;-1.656;2022-12-18T14:29:27;20.33;;;18.02;;
26963;SDS011;14521;48.148;-1.656;2022-12-18T14:33:05;18.58;;;16.65;;
26963;SDS011;14521;48.148;-1.656;2022-12-18T14:36:31;18.35;;;16.45;;
26963;SDS011;14521;48.148;-1.656;2022-12-18T14:39:58;17.08;;;15.40;;
26963;SDS011;14521;48.148;-1.656;2022-12-18T14:43:37;18.48;;;15.43;;
26963;SDS011;14521;48.148;-1.656;2022-12-18T14:47:02;15.57;;;14.05;;
26963;SDS011;14521;48.148;-1.656;2022-12-18T14:50:24;16.33;;;14.70;;
26963;SDS011;14521;48.148;-1.656;2022-12-18T14:53:47;63.90;;;14.35;;
26963;SDS011;14521;48.148;-1.656;2022-12-18T14:57:25;15.85;;;14.10;;
26963;SDS011;14521;48.148;-1.656;2022-12-18T15:00:56;21.08;;;12.77;;
26963;SDS011;14521;48.148;-1.656;2022-12-18T15:07:58;14.27;;;12.70;;
26963;SDS011;14521;48.148;-1.656;2022-12-18T15:11:28;12.05;;;10.82;;
26963;SDS011;14521;48.148;-1.656;2022-12-18T15:18:57;16.60;;;10.98;;
26963;SDS011;14521;48.148;-1.656;2022-12-18T15:22:25;13.35;;;9.88;;
26963;SDS011;14521;48.148;-1.656;2022-12-18T15:25:59;10.68;;;9.57;;
26963;SDS011;14521;48.148;-1.656;2022-12-18T15:29:23;9.23;;;8.32;;
26963;SDS011;14521;48.148;-1.656;2022-12-18T15:32:47;8.93;;;8.13;;
26963;SDS011;14521;48.148;-1.656;2022-12-18T15:36:12;8.13;;;7.43;;
26963;SDS011;14521;48.148;-1.656;2022-12-18T15:39:38;8.10;;;7.30;;
26963;SDS011;14521;48.148;-1.656;2022-12-18T15:43:00;8.40;;;7.50;;
26963;SDS011;14521;48.148;-1.656;2022-12-18T15:46:41;7.65;;;6.97;;
26963;SDS011;14521;48.148;-1.656;2022-12-18T15:50:04;8.10;;;7.35;;
26963;SDS011;14521;48.148;-1.656;2022-12-18T15:53:29;8.90;;;8.00;;
26963;SDS011;14521;48.148;-1.656;2022-12-18T15:56:54;8.75;;;7.13;;
26963;SDS011;14521;48.148;-1.656;2022-12-18T16:00:35;6.80;;;6.18;;
26963;SDS011;14521;48.148;-1.656;2022-12-18T16:03:59;6.95;;;6.35;;
26963;SDS011;14521;48.148;-1.656;2022-12-18T16:07:22;6.28;;;5.60;;
26963;SDS011;14521;48.148;-1.656;2022-12-18T16:10:47;6.25;;;5.75;;
26963;SDS011;14521;48.148;-1.656;2022-12-18T16:14:12;6.35;;;5.72;;
26963;SDS011;14521;48.148;-1.656;2022-12-18T16:17:42;5.80;;;5.30;;
26963;SDS011;14521;48.148;-1.656;2022-12-18T16:21:08;6.43;;;5.82;;
26963;SDS011;14521;48.148;-1.656;2022-12-18T16:24:32;5.50;;;5.03;;
26963;SDS011;14521;48.148;-1.656;2022-12-18T16:27:57;6.50;;;5.85;;
26963;SDS011;14521;48.148;-1.656;2022-12-18T16:31:20;5.47;;;5.07;;
26963;SDS011;14521;48.148;-1.656;2022-12-18T16:34:42;5.45;;;4.88;;
26963;SDS011;14521;48.148;-1.656;2022-12-18T16:38:05;7.22;;;5.53;;
26963;SDS011;14521;48.148;-1.656;2022-12-18T16:41:27;4.95;;;4.50;;
26963;SDS011;14521;48.148;-1.656;2022-12-18T16:48:15;4.22;;;3.90;;
26963;SDS011;14521;48.148;-1.656;2022-12-18T16:51:37;4.57;;;4.00;;
26963;SDS011;14521;48.148;-1.656;2022-12-18T16:55:00;4.85;;;4.55;;
26963;SDS011;14521;48.148;-1.656;2022-12-18T16:58:22;5.22;;;4.82;;
26963;SDS011;14521;48.148;-1.656;2022-12-18T17:01:44;4.38;;;4.07;;
26963;SDS011;14521;48.148;-1.656;2022-12-18T17:05:07;3.80;;;3.50;;
26963;SDS011;14521;48.148;-1.656;2022-12-18T17:08:32;3.15;;;2.95;;
26963;SDS011;14521;48.148;-1.656;2022-12-18T17:11:54;3.35;;;3.08;;
26963;SDS011;14521;48.148;-1.656;2022-12-18T17:15:17;3.35;;;3.10;;
26963;SDS011;14521;48.148;-1.656;2022-12-18T17:18:40;3.10;;;2.90;;
26963;SDS011;14521;48.148;-1.656;2022-12-18T17:22:02;3.00;;;2.80;;
26963;SDS011;14521;48.148;-1.656;2022-12-18T17:25:25;3.58;;;3.25;;
26963;SDS011;14521;48.148;-1.656;2022-12-18T17:28:47;3.38;;;3.05;;
26963;SDS011;14521;48.148;-1.656;2022-12-18T17:32:10;2.88;;;2.58;;
26963;SDS011;14521;48.148;-1.656;2022-12-18T17:35:34;4.03;;;3.00;;
26963;SDS011;14521;48.148;-1.656;2022-12-18T17:38:58;2.45;;;2.35;;
26963;SDS011;14521;48.148;-1.656;2022-12-18T17:42:22;2.80;;;2.60;;
26963;SDS011;14521;48.148;-1.656;2022-12-18T17:45:44;2.67;;;2.47;;
26963;SDS011;14521;48.148;-1.656;2022-12-18T17:49:07;2.70;;;2.50;;
26963;SDS011;14521;48.148;-1.656;2022-12-18T17:52:29;2.67;;;2.47;;
26963;SDS011;14521;48.148;-1.656;2022-12-18T17:55:56;2.33;;;2.22;;
26963;SDS011;14521;48.148;-1.656;2022-12-18T17:59:23;2.45;;;2.35;;
26963;SDS011;14521;48.148;-1.656;2022-12-18T18:02:45;2.50;;;2.30;;
26963;SDS011;14521;48.148;-1.656;2022-12-18T18:06:08;2.40;;;2.20;;
26963;SDS011;14521;48.148;-1.656;2022-12-18T18:09:30;2.55;;;2.40;;
26963;SDS011;14521;48.148;-1.656;2022-12-18T18:12:52;2.50;;;2.30;;
26963;SDS011;14521;48.148;-1.656;2022-12-18T18:16:35;2.25;;;2.10;;
26963;SDS011;14521;48.148;-1.656;2022-12-18T18:19:59;2.13;;;2.03;;
26963;SDS011;14521;48.148;-1.656;2022-12-18T18:23:21;2.20;;;2.10;;
26963;SDS011;14521;48.148;-1.656;2022-12-18T18:26:49;2.15;;;2.05;;
26963;SDS011;14521;48.148;-1.656;2022-12-18T18:30:12;2.30;;;2.20;;
26963;SDS011;14521;48.148;-1.656;2022-12-18T18:33:34;1.95;;;1.85;;
26963;SDS011;14521;48.148;-1.656;2022-12-18T18:36:57;2.17;;;2.08;;
26963;SDS011;14521;48.148;-1.656;2022-12-18T18:40:20;2.83;;;1.80;;
26963;SDS011;14521;48.148;-1.656;2022-12-18T18:43:42;2.60;;;2.42;;
26963;SDS011;14521;48.148;-1.656;2022-12-18T18:47:05;2.58;;;2.28;;
26963;SDS011;14521;48.148;-1.656;2022-12-18T18:50:30;2.35;;;2.13;;
26963;SDS011;14521;48.148;-1.656;2022-12-18T18:53:52;2.45;;;2.25;;
26963;SDS011;14521;48.148;-1.656;2022-12-18T18:57:15;1.95;;;1.85;;
26963;SDS011;14521;48.148;-1.656;2022-12-18T19:00:42;2.40;;;2.20;;
26963;SDS011;14521;48.148;-1.656;2022-12-18T19:04:06;2.40;;;2.20;;
26963;SDS011;14521;48.148;-1.656;2022-12-18T19:07:28;2.95;;;2.35;;
26963;SDS011;14521;48.148;-1.656;2022-12-18T19:10:52;3.20;;;2.00;;
26963;SDS011;14521;48.148;-1.656;2022-12-18T19:14:18;2.20;;;2.00;;
26963;SDS011;14521;48.148;-1.656;2022-12-18T19:17:43;2.05;;;1.95;;
26963;SDS011;14521;48.148;-1.656;2022-12-18T19:21:08;2.30;;;2.10;;
26963;SDS011;14521;48.148;-1.656;2022-12-18T19:24:31;2.45;;;2.25;;
26963;SDS011;14521;48.148;-1.656;2022-12-18T19:27:54;2.38;;;2.28;;
26963;SDS011;14521;48.148;-1.656;2022-12-18T19:31:16;3.10;;;2.35;;
26963;SDS011;14521;48.148;-1.656;2022-12-18T19:34:46;2.20;;;2.00;;
26963;SDS011;14521;48.148;-1.656;2022-12-18T19:38:09;2.00;;;1.80;;
26963;SDS011;14521;48.148;-1.656;2022-12-18T19:41:32;2.05;;;1.95;;
26963;SDS011;14521;48.148;-1.656;2022-12-18T19:44:55;2.00;;;1.90;;
26963;SDS011;14521;48.148;-1.656;2022-12-18T19:48:17;1.80;;;1.70;;
26963;SDS011;14521;48.148;-1.656;2022-12-18T19:51:40;1.77;;;1.67;;
26963;SDS011;14521;48.148;-1.656;2022-12-18T19:55:02;1.90;;;1.80;;
26963;SDS011;14521;48.148;-1.656;2022-12-18T19:58:25;1.88;;;1.77;;
26963;SDS011;14521;48.148;-1.656;2022-12-18T20:01:47;1.77;;;1.67;;
26963;SDS011;14521;48.148;-1.656;2022-12-18T20:05:11;2.13;;;2.03;;
26963;SDS011;14521;48.148;-1.656;2022-12-18T20:08:34;2.08;;;1.60;;
26963;SDS011;14521;48.148;-1.656;2022-12-18T20:11:58;2.08;;;1.90;;
26963;SDS011;14521;48.148;-1.656;2022-12-18T20:15:20;1.88;;;1.75;;
26963;SDS011;14521;48.148;-1.656;2022-12-18T20:18:43;1.80;;;1.70;;
26963;SDS011;14521;48.148;-1.656;2022-12-18T20:22:05;1.85;;;1.75;;
26963;SDS011;14521;48.148;-1.656;2022-12-18T20:25:28;1.95;;;1.80;;
26963;SDS011;14521;48.148;-1.656;2022-12-18T20:28:51;1.63;;;1.52;;
26963;SDS011;14521;48.148;-1.656;2022-12-18T20:32:14;1.92;;;1.83;;
26963;SDS011;14521;48.148;-1.656;2022-12-18T20:35:37;1.70;;;1.60;;
26963;SDS011;14521;48.148;-1.656;2022-12-18T20:39:00;1.70;;;1.60;;
26963;SDS011;14521;48.148;-1.656;2022-12-18T20:42:25;2.70;;;1.63;;
26963;SDS011;14521;48.148;-1.656;2022-12-18T20:45:48;1.80;;;1.70;;
26963;SDS011;14521;48.148;-1.656;2022-12-18T20:49:10;3.47;;;1.60;;
26963;SDS011;14521;48.148;-1.656;2022-12-18T20:52:32;2.45;;;1.95;;
26963;SDS011;14521;48.148;-1.656;2022-12-18T20:55:55;1.80;;;1.35;;
26963;SDS011;14521;48.148;-1.656;2022-12-18T20:59:17;2.33;;;1.75;;
26963;SDS011;14521;48.148;-1.656;2022-12-18T21:02:42;1.90;;;1.80;;
26963;SDS011;14521;48.148;-1.656;2022-12-18T21:06:05;1.88;;;1.73;;
26963;SDS011;14521;48.148;-1.656;2022-12-18T21:09:29;1.38;;;1.27;;
26963;SDS011;14521;48.148;-1.656;2022-12-18T21:12:59;1.95;;;1.85;;
26963;SDS011;14521;48.148;-1.656;2022-12-18T21:16:26;1.83;;;1.73;;
26963;SDS011;14521;48.148;-1.656;2022-12-18T21:19:49;1.80;;;1.65;;
26963;SDS011;14521;48.148;-1.656;2022-12-18T21:23:12;1.60;;;1.50;;
26963;SDS011;14521;48.148;-1.656;2022-12-18T21:26:37;1.98;;;1.35;;
26963;SDS011;14521;48.148;-1.656;2022-12-18T21:30:06;1.92;;;1.58;;
26963;SDS011;14521;48.148;-1.656;2022-12-18T21:33:29;1.92;;;1.83;;
26963;SDS011;14521;48.148;-1.656;2022-12-18T21:36:52;1.55;;;1.45;;
26963;SDS011;14521;48.148;-1.656;2022-12-18T21:40:15;1.95;;;1.58;;
26963;SDS011;14521;48.148;-1.656;2022-12-18T21:43:37;1.63;;;1.52;;
26963;SDS011;14521;48.148;-1.656;2022-12-18T21:47:18;1.58;;;1.48;;
26963;SDS011;14521;48.148;-1.656;2022-12-18T21:54:06;1.70;;;1.60;;
26963;SDS011;14521;48.148;-1.656;2022-12-18T21:57:28;1.80;;;1.70;;
26963;SDS011;14521;48.148;-1.656;2022-12-18T22:00:52;1.50;;;1.40;;
26963;SDS011;14521;48.148;-1.656;2022-12-18T22:04:15;2.10;;;1.90;;